Observations for BREST GUIPAVAS, France (LFRB)

LFRB 202230Z AUTO 20012KT 9999 BKN006 OVC016 12/11 Q1018 NOSIG  
LFRB 202200Z AUTO 21011KT 9999 BKN006 OVC019 12/11 Q1018 NOSIG  
LFRB 202130Z AUTO 20012KT 9999 OVC006 12/11 Q1018 NOSIG 
LFRB 202100Z AUTO 20013KT 9999 OVC006 12/11 Q1018 NOSIG 
LFRB 202030Z AUTO 20013KT 9999 OVC006 12/11 Q1018 NOSIG 
LFRB 202000Z AUTO 21012KT 9999 BKN007 OVC012 13/11 Q1018 NOSIG  
LFRB 201930Z AUTO 21013KT 9999 OVC005 12/11 Q1018 NOSIG 
LFRB 201900Z AUTO 20010KT 9999 OVC006 12/11 Q1019 NOSIG 
LFRB 201830Z AUTO 19012KT 9999 OVC006 12/11 Q1019 NOSIG 
LFRB 201800Z AUTO 19012KT 9999 OVC007 12/11 Q1019 BECMG OVC011  
LFRB 201730Z AUTO 19012KT 9999 OVC008 12/10 Q1019 BECMG OVC011  
LFRB 201700Z AUTO 19012KT 9999 OVC010 12/10 Q1019 TEMPO BKN020  
LFRB 201630Z AUTO 19012KT 9999 OVC011 12/10 Q1019 TEMPO BKN020  
LFRB 201600Z AUTO 20010KT 9999 OVC012 12/10 Q1019 TEMPO BKN020  
LFRB 201530Z AUTO 20011KT 9999 BKN013 BKN240 13/10 Q1019 TEMPO BKN020   
LFRB 201500Z AUTO 20013KT 9999 BKN013 13/10 Q1020 TEMPO BKN020  
LFRB 201430Z AUTO 21013KT 9999 BKN014 13/10 Q1020 TEMPO BKN020  
LFRB 201400Z AUTO 21016KT 9999 BKN014 13/10 Q1020 TEMPO BKN020  
LFRB 201330Z AUTO 21015KT 9999 OVC013 13/10 Q1020 TEMPO BKN020  
LFRB 201300Z AUTO 21015KT 9999 FEW009 SCT014 14/10 Q1021 BECMG BKN012   
LFRB 201230Z AUTO 20015KT 9999 BKN014 14/10 Q1021 TEMPO BKN020  
LFRB 201200Z AUTO 20015KT 9999 OVC013 14/10 Q1021 TEMPO BKN020  
LFRB 201130Z AUTO 20015KT 9999 BKN012 OVC017 13/11 Q1022 TEMPO BKN020   
LFRB 201100Z AUTO 21013KT 9999 BKN014 13/10 Q1022 BECMG BKN020  
LFRB 201030Z AUTO 21013KT 9999 BKN012 13/10 Q1022 BECMG BKN020  
LFRB 201000Z AUTO 20011KT 9999 OVC010 12/10 Q1022 BECMG BKN020  
LFRB 200930Z AUTO 21010KT 9999 OVC012 12/10 Q1022 BECMG BKN020  
LFRB 200900Z AUTO 21010KT 9999 OVC011 11/10 Q1022 BECMG BKN020  
LFRB 200830Z AUTO 19007KT 130V220 9999 BKN013 11/10 Q1022 BECMG BKN020  
LFRB 200800Z AUTO /////KT 9999 BKN014 11/10 Q1022   
LFRB 200730Z AUTO /////KT 9999 BKN016 10/09 Q1022   
LFRB 200700Z AUTO /////KT 9999 BKN016 10/09 Q1022   
LFRB 200630Z AUTO /////KT 9999 BKN019 10/09 Q1022   
LFRB 200600Z AUTO /////KT 9999 BKN018 10/09 Q1022   
LFRB 200530Z AUTO /////KT 9999 BKN019 10/09 Q1022   
LFRB 200500Z AUTO /////KT 9999 OVC019 10/09 Q1022   
LFRB 200430Z AUTO /////KT 9999 OVC017 10/09 Q1022   
LFRB 200400Z AUTO /////KT 9999 OVC017 10/09 Q1022   
LFRB 200330Z AUTO /////KT 9999 OVC019 10/09 Q1023   
LFRB 200300Z AUTO /////KT 9999 OVC019 10/09 Q1023   
LFRB 200230Z AUTO /////KT 9999 OVC018 09/09 Q1023   
LFRB 200200Z AUTO /////KT 9999 OVC020 08/08 Q1023   
LFRB 200130Z AUTO /////KT 9999 OVC019 08/08 Q1024   
LFRB 200100Z AUTO /////KT 8000 FEW019 07/07 Q1024   
LFRB 200030Z AUTO /////KT 9000 NSC 07/07 Q1024  
LFRB 200000Z AUTO /////KT 9000 FEW015 08/07 Q1024   
LFRB 192330Z AUTO /////KT 9999 FEW024 08/07 Q1025   
LFRB 192300Z AUTO /////KT 9999 BKN022 BKN027 09/08 Q1025
LFRB 192230Z AUTO /////KT 9999 FEW020 BKN026 10/08 Q1025
LFRB 192200Z AUTO /////KT 9000 FEW010 OVC025 10/09 Q1025